Time,TemperatureF,DewpointF,PressureIn,WindDirection,WindDirectionDegrees,WindSpeedMPH,WindSpeedGustMPH,Humidity,HourlyPrecipIn,Conditions,Clouds,dailyrainin,SoftwareType,DateUTC
2013-03-07 00:12:00,35.3,27.0,30.16,NW,319,0.0,1.0,73,0.00,,,0.00,weatherlink.com 1.10,2013-03-07 05:12:00,
2013-03-07 00:28:00,35.1,27.0,30.17,North,9,3.0,3.0,72,0.00,,,0.00,weatherlink.com 1.10,2013-03-07 05:28:00,
2013-03-07 00:43:00,35.3,26.0,30.17,NNE,15,4.0,5.0,69,0.00,,,0.00,weatherlink.com 1.10,2013-03-07 05:43:00,
2013-03-07 00:58:00,35.1,26.0,30.18,NE,41,4.0,6.0,69,0.00,,,0.00,weatherlink.com 1.10,2013-03-07 05:58:00,
2013-03-07 01:13:00,34.8,26.0,30.18,NNE,21,4.0,6.0,70,0.00,,,0.00,weatherlink.com 1.10,2013-03-07 06:13:00,
2013-03-07 01:28:00,34.7,26.0,30.18,NE,38,2.0,6.0,70,0.00,,,0.00,weatherlink.com 1.10,2013-03-07 06:28:00,
2013-03-07 01:43:00,34.6,25.0,30.18,NNE,22,2.0,5.0,69,0.00,,,0.00,weatherlink.com 1.10,2013-03-07 06:43:00,
2013-03-07 01:58:00,34.4,26.0,30.18,NNE,18,1.0,4.0,71,0.00,,,0.00,weatherlink.com 1.10,2013-03-07 06:58:00,
2013-03-07 02:13:00,34.1,26.0,30.18,North,2,0.0,1.0,71,0.00,,,0.00,weatherlink.com 1.10,2013-03-07 07:13:00,
2013-03-07 02:28:00,34.0,25.0,30.18,North,2,0.0,0.0,70,0.00,,,0.00,weatherlink.com 1.10,2013-03-07 07:28:00,
2013-03-07 02:43:00,33.9,25.0,30.18,East,90,2.0,4.0,69,0.00,,,0.00,weatherlink.com 1.10,2013-03-07 07:43:00,
2013-03-07 02:58:00,33.8,25.0,30.18,NNW,334,0.0,1.0,69,0.00,,,0.00,weatherlink.com 1.10,2013-03-07 07:58:00,
2013-03-07 03:13:00,33.8,24.0,30.18,NNW,336,0.0,1.0,68,0.00,,,0.00,weatherlink.com 1.10,2013-03-07 08:13:00,
2013-03-07 03:28:00,33.9,24.0,30.17,NNW,338,0.0,2.0,68,0.00,,,0.00,weatherlink.com 1.10,2013-03-07 08:28:00,
2013-03-07 03:43:00,33.9,24.0,30.18,NNW,331,0.0,1.0,67,0.00,,,0.00,weatherlink.com 1.10,2013-03-07 08:43:00,
2013-03-07 03:58:00,33.6,24.0,30.18,NW,315,0.0,2.0,68,0.00,,,0.00,weatherlink.com 1.10,2013-03-07 08:58:00,
2013-03-07 04:13:00,33.3,24.0,30.18,NW,323,0.0,1.0,70,0.00,,,0.00,weatherlink.com 1.10,2013-03-07 09:13:00,
2013-03-07 04:28:00,33.1,24.0,30.18,NNW,330,0.0,1.0,69,0.00,,,0.00,weatherlink.com 1.10,2013-03-07 09:28:00,
2013-03-07 04:43:00,33.4,24.0,30.18,North,353,0.0,3.0,68,0.00,,,0.00,weatherlink.com 1.10,2013-03-07 09:43:00,
2013-03-07 04:58:00,33.3,24.0,30.18,NW,320,0.0,2.0,68,0.00,,,0.00,weatherlink.com 1.10,2013-03-07 09:58:00,
2013-03-07 05:13:00,33.2,24.0,30.18,NW,325,0.0,3.0,68,0.00,,,0.00,weatherlink.com 1.10,2013-03-07 10:13:00,
2013-03-07 05:28:00,32.9,24.0,30.18,NW,319,0.0,0.0,69,0.00,,,0.00,weatherlink.com 1.10,2013-03-07 10:28:00,
2013-03-07 05:43:00,33.2,24.0,30.18,NNW,338,0.0,3.0,68,0.00,,,0.00,weatherlink.com 1.10,2013-03-07 10:43:00,
2013-03-07 05:58:00,33.1,24.0,30.17,NW,324,0.0,3.0,68,0.00,,,0.00,weatherlink.com 1.10,2013-03-07 10:58:00,
2013-03-07 06:13:00,32.8,24.0,30.18,NNW,334,1.0,2.0,70,0.00,,,0.00,weatherlink.com 1.10,2013-03-07 11:13:00,
2013-03-07 06:28:00,32.6,24.0,30.18,NNW,338,0.0,2.0,70,0.00,,,0.00,weatherlink.com 1.10,2013-03-07 11:28:00,
2013-03-07 06:43:00,32.6,24.0,30.18,NNW,342,0.0,4.0,71,0.00,,,0.00,weatherlink.com 1.10,2013-03-07 11:43:00,
2013-03-07 06:58:00,32.6,24.0,30.18,NW,318,0.0,1.0,72,0.00,,,0.00,weatherlink.com 1.10,2013-03-07 11:58:00,
2013-03-07 07:13:00,33.2,24.0,30.18,NNW,339,0.0,4.0,68,0.00,,,0.00,weatherlink.com 1.10,2013-03-07 12:13:00,
2013-03-07 07:28:00,33.4,24.0,30.18,NNW,340,0.0,3.0,68,0.00,,,0.00,weatherlink.com 1.10,2013-03-07 12:28:00,
2013-03-07 07:43:00,33.9,24.0,30.18,North,354,1.0,4.0,66,0.00,,,0.00,weatherlink.com 1.10,2013-03-07 12:43:00,
2013-03-07 07:58:00,34.3,23.0,30.19,NE,36,6.0,8.0,63,0.00,,,0.00,weatherlink.com 1.10,2013-03-07 12:58:00,
2013-03-07 08:13:00,34.8,22.0,30.18,ENE,62,3.0,10.0,61,0.00,,,0.00,weatherlink.com 1.10,2013-03-07 13:13:00,
2013-03-07 08:28:00,34.8,22.0,30.18,NE,34,4.0,10.0,61,0.00,,,0.00,weatherlink.com 1.10,2013-03-07 13:28:00,
2013-03-07 08:43:00,35.0,23.0,30.18,ENE,67,3.0,9.0,61,0.00,,,0.00,weatherlink.com 1.10,2013-03-07 13:43:00,
2013-03-07 08:58:00,35.5,22.0,30.17,NNE,31,4.0,10.0,59,0.00,,,0.00,weatherlink.com 1.10,2013-03-07 13:58:00,
2013-03-07 09:13:00,35.7,22.0,30.18,NNE,26,4.0,10.0,57,0.00,,,0.00,weatherlink.com 1.10,2013-03-07 14:13:00,
2013-03-07 09:28:00,35.9,23.0,30.17,NE,40,5.0,7.0,59,0.00,,,0.00,weatherlink.com 1.10,2013-03-07 14:28:00,
2013-03-07 09:43:00,35.4,22.0,30.17,North,359,5.0,7.0,58,0.00,,,0.00,weatherlink.com 1.10,2013-03-07 14:43:00,
2013-03-07 09:58:00,35.4,22.0,30.18,NNW,346,4.0,7.0,59,0.00,,,0.00,weatherlink.com 1.10,2013-03-07 14:58:00,
2013-03-07 10:13:00,35.7,23.0,30.17,North,2,4.0,8.0,60,0.00,,,0.00,weatherlink.com 1.10,2013-03-07 15:13:00,
2013-03-07 10:28:00,35.9,23.0,30.17,NNW,334,4.0,8.0,60,0.00,,,0.00,weatherlink.com 1.10,2013-03-07 15:28:00,
2013-03-07 10:43:00,36.1,22.0,30.17,NNW,339,3.0,8.0,58,0.00,,,0.00,weatherlink.com 1.10,2013-03-07 15:43:00,
2013-03-07 10:58:00,35.9,24.0,30.17,WNW,302,7.0,10.0,63,0.00,,,0.00,weatherlink.com 1.10,2013-03-07 15:58:00,
2013-03-07 11:13:00,35.0,25.0,30.17,NW,308,3.0,11.0,66,0.00,,,0.00,weatherlink.com 1.10,2013-03-07 16:13:00,
2013-03-07 11:28:00,34.9,25.0,30.17,NW,325,3.0,10.0,66,0.00,,,0.00,weatherlink.com 1.10,2013-03-07 16:28:00,
2013-03-07 11:44:00,34.7,25.0,30.17,NNW,338,4.0,10.0,68,0.00,,,0.00,weatherlink.com 1.10,2013-03-07 16:44:00,
2013-03-07 11:59:00,34.6,25.0,30.17,NNW,330,6.0,12.0,68,0.00,,,0.00,weatherlink.com 1.10,2013-03-07 16:59:00,
2013-03-07 12:14:00,35.1,26.0,30.17,NNW,338,1.0,11.0,69,0.00,,,0.00,weatherlink.com 1.10,2013-03-07 17:14:00,
2013-03-07 12:29:00,34.9,26.0,30.17,NNW,340,3.0,10.0,69,0.00,,,0.00,weatherlink.com 1.10,2013-03-07 17:29:00,
2013-03-07 12:44:00,34.6,25.0,30.17,NW,325,2.0,12.0,69,0.00,,,0.00,weatherlink.com 1.10,2013-03-07 17:44:00,
2013-03-07 12:59:00,34.5,26.0,30.17,NW,316,6.0,12.0,70,0.00,,,0.00,weatherlink.com 1.10,2013-03-07 17:59:00,
2013-03-07 13:14:00,34.2,26.0,30.17,North,356,2.0,11.0,71,0.00,,,0.00,weatherlink.com 1.10,2013-03-07 18:14:00,
2013-03-07 13:29:00,34.1,26.0,30.17,NNW,339,1.0,10.0,72,0.00,,,0.00,weatherlink.com 1.10,2013-03-07 18:29:00,
2013-03-07 13:59:00,34.0,26.0,30.16,North,352,2.0,9.0,73,0.00,,,0.00,weatherlink.com 1.10,2013-03-07 18:59:00,
2013-03-07 14:14:00,33.9,26.0,30.16,NW,323,1.0,7.0,72,0.00,,,0.00,weatherlink.com 1.10,2013-03-07 19:14:00,
2013-03-07 14:29:00,34.0,26.0,30.16,NNW,343,4.0,9.0,71,0.00,,,0.00,weatherlink.com 1.10,2013-03-07 19:29:00,
2013-03-07 14:44:00,34.0,25.0,30.16,North,352,3.0,11.0,70,0.00,,,0.00,weatherlink.com 1.10,2013-03-07 19:44:00,
2013-03-07 14:59:00,34.2,26.0,30.16,NNW,334,5.0,8.0,71,0.00,,,0.00,weatherlink.com 1.10,2013-03-07 19:59:00,
2013-03-07 15:14:00,34.1,26.0,30.17,NNW,340,2.0,12.0,72,0.00,,,0.00,weatherlink.com 1.10,2013-03-07 20:14:00,
2013-03-07 15:29:00,34.0,26.0,30.17,NW,325,3.0,9.0,72,0.00,,,0.00,weatherlink.com 1.10,2013-03-07 20:29:00,
2013-03-07 15:44:00,33.7,25.0,30.17,NW,325,6.0,12.0,71,0.00,,,0.00,weatherlink.com 1.10,2013-03-07 20:44:00,
2013-03-07 15:59:00,33.7,26.0,30.18,NNW,328,5.0,8.0,72,0.00,,,0.00,weatherlink.com 1.10,2013-03-07 20:59:00,
2013-03-07 16:14:00,33.7,26.0,30.18,NW,315,3.0,7.0,72,0.00,,,0.00,weatherlink.com 1.10,2013-03-07 21:14:00,
2013-03-07 16:29:00,33.5,26.0,30.18,North,358,5.0,8.0,73,0.00,,,0.00,weatherlink.com 1.10,2013-03-07 21:29:00,
2013-03-07 16:44:00,33.3,26.0,30.18,North,351,1.0,10.0,73,0.00,,,0.00,weatherlink.com 1.10,2013-03-07 21:44:00,
2013-03-07 16:59:00,33.2,25.0,30.18,NNW,331,5.0,7.0,73,0.00,,,0.00,weatherlink.com 1.10,2013-03-07 21:59:00,
2013-03-07 17:14:00,33.1,26.0,30.18,North,359,5.0,9.0,74,0.00,,,0.00,weatherlink.com 1.10,2013-03-07 22:14:00,
2013-03-07 17:29:00,32.8,26.0,30.19,WNW,296,1.0,10.0,76,0.00,,,0.00,weatherlink.com 1.10,2013-03-07 22:29:00,
2013-03-07 17:44:00,32.5,26.0,30.20,NNE,32,4.0,9.0,76,0.00,,,0.00,weatherlink.com 1.10,2013-03-07 22:44:00,
2013-03-07 17:59:00,32.3,25.0,30.20,NNW,344,3.0,10.0,75,0.00,,,0.00,weatherlink.com 1.10,2013-03-07 22:59:00,
2013-03-07 18:14:00,32.2,25.0,30.20,NNW,329,4.0,10.0,75,0.00,,,0.00,weatherlink.com 1.10,2013-03-07 23:14:00,
2013-03-07 18:29:00,32.2,25.0,30.20,NNW,334,1.0,10.0,75,0.00,,,0.00,weatherlink.com 1.10,2013-03-07 23:29:00,
2013-03-07 18:44:00,32.2,25.0,30.20,North,9,7.0,8.0,75,0.00,,,0.00,weatherlink.com 1.10,2013-03-07 23:44:00,
2013-03-07 19:00:00,32.1,25.0,30.20,North,1,3.0,8.0,75,0.00,,,0.00,weatherlink.com 1.10,2013-03-08 00:00:00,
2013-03-07 19:14:00,32.0,25.0,30.20,NNW,336,3.0,8.0,75,0.00,,,0.00,weatherlink.com 1.10,2013-03-08 00:14:00,
2013-03-07 19:29:00,31.9,25.0,30.20,North,358,3.0,9.0,76,0.00,,,0.00,weatherlink.com 1.10,2013-03-08 00:29:00,
2013-03-07 19:44:00,31.8,25.0,30.20,NNW,337,2.0,11.0,77,0.00,,,0.00,weatherlink.com 1.10,2013-03-08 00:44:00,
2013-03-07 19:59:00,31.7,26.0,30.20,NNW,339,6.0,12.0,78,0.00,,,0.00,weatherlink.com 1.10,2013-03-08 00:59:00,
2013-03-07 20:14:00,31.5,26.0,30.20,North,11,4.0,7.0,79,0.00,,,0.00,weatherlink.com 1.10,2013-03-08 01:14:00,
2013-03-07 20:29:00,31.2,25.0,30.20,NNW,342,4.0,11.0,79,0.00,,,0.00,weatherlink.com 1.10,2013-03-08 01:29:00,
2013-03-07 20:44:00,31.0,26.0,30.21,NNE,13,7.0,11.0,81,0.00,,,0.00,weatherlink.com 1.10,2013-03-08 01:44:00,
2013-03-07 20:59:00,30.6,26.0,30.20,NNW,348,4.0,10.0,83,0.00,,,0.00,weatherlink.com 1.10,2013-03-08 01:59:00,
2013-03-07 21:14:00,30.5,26.0,30.20,North,356,3.0,9.0,84,0.00,,,0.00,weatherlink.com 1.10,2013-03-08 02:14:00,
2013-03-07 21:29:00,30.6,26.0,30.20,NNW,331,2.0,10.0,83,0.00,,,0.00,weatherlink.com 1.10,2013-03-08 02:29:00,
2013-03-07 21:44:00,30.7,26.0,30.18,North,352,7.0,9.0,82,0.00,,,0.00,weatherlink.com 1.10,2013-03-08 02:44:00,
2013-03-07 22:00:00,30.8,26.0,30.18,NNW,343,4.0,8.0,81,0.00,,,0.00,weatherlink.com 1.10,2013-03-08 03:00:00,
2013-03-07 22:15:00,30.9,26.0,30.18,North,2,4.0,11.0,81,0.00,,,0.00,weatherlink.com 1.10,2013-03-08 03:15:00,
2013-03-07 22:45:00,30.9,26.0,30.16,NNW,348,4.0,10.0,81,0.00,,,0.00,weatherlink.com 1.10,2013-03-08 03:45:00,
2013-03-07 23:00:00,30.9,26.0,30.16,NNW,338,4.0,9.0,82,0.00,,,0.00,weatherlink.com 1.10,2013-03-08 04:00:00,
2013-03-07 23:15:00,30.9,26.0,30.16,NNW,328,4.0,8.0,82,0.00,,,0.00,weatherlink.com 1.10,2013-03-08 04:15:00,
2013-03-07 23:30:00,30.9,26.0,30.16,NNW,347,3.0,11.0,82,0.00,,,0.00,weatherlink.com 1.10,2013-03-08 04:30:00,
2013-03-07 23:45:00,30.9,26.0,30.16,NNW,334,4.0,8.0,82,0.00,,,0.00,weatherlink.com 1.10,2013-03-08 04:45:00,